sensor_id;sensor_type;location;lat;lon;timestamp;temperature;humidity
76172;DHT22;64929;51.178;4.138;2024-03-02T00:00:08;7.10;99.90
76172;DHT22;64929;51.178;4.138;2024-03-02T00:02:44;7.10;99.90
76172;DHT22;64929;51.178;4.138;2024-03-02T00:05:20;7.10;99.90
76172;DHT22;64929;51.178;4.138;2024-03-02T00:07:57;7.10;99.90
76172;DHT22;64929;51.178;4.138;2024-03-02T00:10:25;7.20;99.90
76172;DHT22;64929;51.178;4.138;2024-03-02T00:12:55;7.20;99.90
76172;DHT22;64929;51.178;4.138;2024-03-02T00:15:47;7.20;99.90
76172;DHT22;64929;51.178;4.138;2024-03-02T00:18:19;7.20;99.90
76172;DHT22;64929;51.178;4.138;2024-03-02T00:20:45;7.20;99.90
76172;DHT22;64929;51.178;4.138;2024-03-02T00:23:15;7.20;99.90
76172;DHT22;64929;51.178;4.138;2024-03-02T00:28:22;7.20;99.90
76172;DHT22;64929;51.178;4.138;2024-03-02T00:33:21;7.20;99.90
76172;DHT22;64929;51.178;4.138;2024-03-02T00:35:48;7.30;99.90
76172;DHT22;64929;51.178;4.138;2024-03-02T00:38:14;7.20;99.90
76172;DHT22;64929;51.178;4.138;2024-03-02T00:40:43;7.20;99.90
76172;DHT22;64929;51.178;4.138;2024-03-02T00:46:05;7.20;99.90
76172;DHT22;64929;51.178;4.138;2024-03-02T00:48:31;7.20;99.90
76172;DHT22;64929;51.178;4.138;2024-03-02T00:51:01;7.20;99.90
76172;DHT22;64929;51.178;4.138;2024-03-02T00:53:29;7.30;99.90
76172;DHT22;64929;51.178;4.138;2024-03-02T00:55:55;7.20;99.90
76172;DHT22;64929;51.178;4.138;2024-03-02T00:58:21;7.10;99.90
76172;DHT22;64929;51.178;4.138;2024-03-02T01:00:47;7.10;99.90
76172;DHT22;64929;51.178;4.138;2024-03-02T01:03:13;7.30;99.90
76172;DHT22;64929;51.178;4.138;2024-03-02T01:05:45;7.20;99.90
76172;DHT22;64929;51.178;4.138;2024-03-02T01:08:11;7.20;99.90
76172;DHT22;64929;51.178;4.138;2024-03-02T01:10:36;7.20;99.90
76172;DHT22;64929;51.178;4.138;2024-03-02T01:13:02;7.10;99.90
76172;DHT22;64929;51.178;4.138;2024-03-02T01:15:28;7.10;99.90
76172;DHT22;64929;51.178;4.138;2024-03-02T01:17:54;7.20;99.90
76172;DHT22;64929;51.178;4.138;2024-03-02T01:20:20;7.20;99.90
76172;DHT22;64929;51.178;4.138;2024-03-02T01:22:45;7.20;99.90
76172;DHT22;64929;51.178;4.138;2024-03-02T01:25:12;7.20;99.90
76172;DHT22;64929;51.178;4.138;2024-03-02T01:27:39;7.20;99.90
76172;DHT22;64929;51.178;4.138;2024-03-02T01:30:05;7.20;99.90
76172;DHT22;64929;51.178;4.138;2024-03-02T01:32:31;7.20;99.90
76172;DHT22;64929;51.178;4.138;2024-03-02T01:34:57;7.20;99.90
76172;DHT22;64929;51.178;4.138;2024-03-02T01:37:22;7.20;99.90
76172;DHT22;64929;51.178;4.138;2024-03-02T01:39:48;7.30;99.90
76172;DHT22;64929;51.178;4.138;2024-03-02T01:42:14;7.30;99.90
76172;DHT22;64929;51.178;4.138;2024-03-02T01:44:40;7.30;99.90
76172;DHT22;64929;51.178;4.138;2024-03-02T01:47:06;7.30;99.90
76172;DHT22;64929;51.178;4.138;2024-03-02T01:49:32;7.30;99.90
76172;DHT22;64929;51.178;4.138;2024-03-02T01:51:59;7.20;99.90
76172;DHT22;64929;51.178;4.138;2024-03-02T01:54:25;7.20;99.90
76172;DHT22;64929;51.178;4.138;2024-03-02T01:56:51;7.20;99.90
76172;DHT22;64929;51.178;4.138;2024-03-02T01:59:16;7.20;99.90
76172;DHT22;64929;51.178;4.138;2024-03-02T02:01:42;7.20;99.90
76172;DHT22;64929;51.178;4.138;2024-03-02T02:04:08;7.30;99.90
76172;DHT22;64929;51.178;4.138;2024-03-02T02:06:33;7.40;99.90
76172;DHT22;64929;51.178;4.138;2024-03-02T02:08:59;7.30;99.90
76172;DHT22;64929;51.178;4.138;2024-03-02T02:11:26;7.40;99.90
76172;DHT22;64929;51.178;4.138;2024-03-02T02:13:51;7.30;99.90
76172;DHT22;64929;51.178;4.138;2024-03-02T02:16:17;7.20;99.90
76172;DHT22;64929;51.178;4.138;2024-03-02T02:18:43;7.30;99.90
76172;DHT22;64929;51.178;4.138;2024-03-02T02:21:08;7.30;99.90
76172;DHT22;64929;51.178;4.138;2024-03-02T02:23:34;7.30;99.90
76172;DHT22;64929;51.178;4.138;2024-03-02T02:26:00;7.20;99.90
76172;DHT22;64929;51.178;4.138;2024-03-02T02:28:28;7.30;99.90
76172;DHT22;64929;51.178;4.138;2024-03-02T02:30:55;7.20;99.90
76172;DHT22;64929;51.178;4.138;2024-03-02T02:33:21;7.20;99.90
76172;DHT22;64929;51.178;4.138;2024-03-02T02:35:47;7.20;99.90
76172;DHT22;64929;51.178;4.138;2024-03-02T02:38:13;7.20;99.90
76172;DHT22;64929;51.178;4.138;2024-03-02T02:40:40;7.20;99.90
76172;DHT22;64929;51.178;4.138;2024-03-02T02:43:05;7.20;99.90
76172;DHT22;64929;51.178;4.138;2024-03-02T02:45:32;7.10;99.90
76172;DHT22;64929;51.178;4.138;2024-03-02T02:47:58;7.10;99.90
76172;DHT22;64929;51.178;4.138;2024-03-02T02:50:23;7.10;99.90
76172;DHT22;64929;51.178;4.138;2024-03-02T02:52:49;7.10;99.90
76172;DHT22;64929;51.178;4.138;2024-03-02T02:55:16;7.10;99.90
76172;DHT22;64929;51.178;4.138;2024-03-02T02:57:42;7.00;99.90
76172;DHT22;64929;51.178;4.138;2024-03-02T03:00:14;7.00;99.90
76172;DHT22;64929;51.178;4.138;2024-03-02T03:02:47;7.10;99.90
76172;DHT22;64929;51.178;4.138;2024-03-02T03:05:14;7.10;99.90
76172;DHT22;64929;51.178;4.138;2024-03-02T03:07:40;7.10;99.90
76172;DHT22;64929;51.178;4.138;2024-03-02T03:10:07;7.10;99.90
76172;DHT22;64929;51.178;4.138;2024-03-02T03:12:34;7.10;99.90
76172;DHT22;64929;51.178;4.138;2024-03-02T03:14:59;7.10;99.90
76172;DHT22;64929;51.178;4.138;2024-03-02T03:17:25;7.10;99.90
76172;DHT22;64929;51.178;4.138;2024-03-02T03:19:51;7.10;99.90
76172;DHT22;64929;51.178;4.138;2024-03-02T03:22:17;7.10;99.90
76172;DHT22;64929;51.178;4.138;2024-03-02T03:24:43;7.20;99.90
76172;DHT22;64929;51.178;4.138;2024-03-02T03:27:09;7.20;99.90
76172;DHT22;64929;51.178;4.138;2024-03-02T03:29:36;7.20;99.90
76172;DHT22;64929;51.178;4.138;2024-03-02T03:32:02;7.30;99.90
76172;DHT22;64929;51.178;4.138;2024-03-02T03:34:28;7.40;99.90
76172;DHT22;64929;51.178;4.138;2024-03-02T03:36:55;7.40;99.90
76172;DHT22;64929;51.178;4.138;2024-03-02T03:39:20;7.40;99.90
76172;DHT22;64929;51.178;4.138;2024-03-02T03:41:46;7.40;99.90
76172;DHT22;64929;51.178;4.138;2024-03-02T03:44:12;7.30;99.90
76172;DHT22;64929;51.178;4.138;2024-03-02T03:46:37;7.30;99.90
76172;DHT22;64929;51.178;4.138;2024-03-02T03:49:03;7.40;99.90
76172;DHT22;64929;51.178;4.138;2024-03-02T03:51:29;7.50;99.90
76172;DHT22;64929;51.178;4.138;2024-03-02T03:53:55;7.40;99.90
76172;DHT22;64929;51.178;4.138;2024-03-02T03:56:21;7.30;99.90
76172;DHT22;64929;51.178;4.138;2024-03-02T03:58:47;7.30;99.90
76172;DHT22;64929;51.178;4.138;2024-03-02T04:01:12;7.30;99.90
76172;DHT22;64929;51.178;4.138;2024-03-02T04:03:38;7.40;99.90
76172;DHT22;64929;51.178;4.138;2024-03-02T04:06:04;7.40;99.90
76172;DHT22;64929;51.178;4.138;2024-03-02T04:08:30;7.40;99.90
76172;DHT22;64929;51.178;4.138;2024-03-02T04:10:56;7.50;99.90
76172;DHT22;64929;51.178;4.138;2024-03-02T04:13:21;7.40;99.90
76172;DHT22;64929;51.178;4.138;2024-03-02T04:15:47;7.40;99.90
76172;DHT22;64929;51.178;4.138;2024-03-02T04:18:13;7.40;99.90
76172;DHT22;64929;51.178;4.138;2024-03-02T04:20:38;7.40;99.90
76172;DHT22;64929;51.178;4.138;2024-03-02T04:23:04;7.40;99.90
76172;DHT22;64929;51.178;4.138;2024-03-02T04:25:30;7.40;99.90
76172;DHT22;64929;51.178;4.138;2024-03-02T04:27:56;7.40;99.90
76172;DHT22;64929;51.178;4.138;2024-03-02T04:30:21;7.40;99.90
76172;DHT22;64929;51.178;4.138;2024-03-02T04:32:47;7.40;99.90
76172;DHT22;64929;51.178;4.138;2024-03-02T04:35:14;7.40;99.90
76172;DHT22;64929;51.178;4.138;2024-03-02T04:37:40;7.40;99.90
76172;DHT22;64929;51.178;4.138;2024-03-02T04:40:06;7.30;99.90
76172;DHT22;64929;51.178;4.138;2024-03-02T04:42:35;7.20;99.90
76172;DHT22;64929;51.178;4.138;2024-03-02T04:45:01;7.20;99.90
76172;DHT22;64929;51.178;4.138;2024-03-02T04:47:27;7.30;99.90
76172;DHT22;64929;51.178;4.138;2024-03-02T04:49:53;7.20;99.90
76172;DHT22;64929;51.178;4.138;2024-03-02T04:52:19;7.20;99.90
76172;DHT22;64929;51.178;4.138;2024-03-02T04:54:44;7.10;99.90
76172;DHT22;64929;51.178;4.138;2024-03-02T04:57:28;7.20;99.90
76172;DHT22;64929;51.178;4.138;2024-03-02T04:59:54;7.20;99.90
76172;DHT22;64929;51.178;4.138;2024-03-02T05:02:20;7.10;99.90
76172;DHT22;64929;51.178;4.138;2024-03-02T05:04:46;7.00;99.90
76172;DHT22;64929;51.178;4.138;2024-03-02T05:07:13;7.10;99.90
76172;DHT22;64929;51.178;4.138;2024-03-02T05:09:39;7.00;99.90
76172;DHT22;64929;51.178;4.138;2024-03-02T05:12:05;7.00;99.90
76172;DHT22;64929;51.178;4.138;2024-03-02T05:14:49;7.00;99.90
76172;DHT22;64929;51.178;4.138;2024-03-02T05:17:15;7.10;99.90
76172;DHT22;64929;51.178;4.138;2024-03-02T05:19:41;7.10;99.90
76172;DHT22;64929;51.178;4.138;2024-03-02T05:22:06;7.00;99.90
76172;DHT22;64929;51.178;4.138;2024-03-02T05:24:32;7.00;99.90
76172;DHT22;64929;51.178;4.138;2024-03-02T05:26:58;7.00;99.90
76172;DHT22;64929;51.178;4.138;2024-03-02T05:29:23;6.90;99.90
76172;DHT22;64929;51.178;4.138;2024-03-02T05:31:49;6.90;99.90
76172;DHT22;64929;51.178;4.138;2024-03-02T05:34:15;6.90;99.90
76172;DHT22;64929;51.178;4.138;2024-03-02T05:36:40;6.90;99.90
76172;DHT22;64929;51.178;4.138;2024-03-02T05:39:06;6.90;99.90
76172;DHT22;64929;51.178;4.138;2024-03-02T05:41:35;6.90;99.90
76172;DHT22;64929;51.178;4.138;2024-03-02T05:44:00;6.80;99.90
76172;DHT22;64929;51.178;4.138;2024-03-02T05:46:27;6.70;99.90
76172;DHT22;64929;51.178;4.138;2024-03-02T05:48:52;6.70;99.90
76172;DHT22;64929;51.178;4.138;2024-03-02T05:51:18;6.80;99.90
76172;DHT22;64929;51.178;4.138;2024-03-02T05:53:44;6.60;99.90
76172;DHT22;64929;51.178;4.138;2024-03-02T05:56:09;6.60;99.90
76172;DHT22;64929;51.178;4.138;2024-03-02T05:58:35;6.60;99.90
76172;DHT22;64929;51.178;4.138;2024-03-02T06:01:01;6.60;99.90
76172;DHT22;64929;51.178;4.138;2024-03-02T06:03:26;6.60;99.90
76172;DHT22;64929;51.178;4.138;2024-03-02T06:05:53;6.70;99.90
76172;DHT22;64929;51.178;4.138;2024-03-02T06:08:19;6.80;99.90
76172;DHT22;64929;51.178;4.138;2024-03-02T06:10:45;6.70;99.90
76172;DHT22;64929;51.178;4.138;2024-03-02T06:13:11;6.80;99.90
76172;DHT22;64929;51.178;4.138;2024-03-02T06:15:37;6.70;99.90
76172;DHT22;64929;51.178;4.138;2024-03-02T06:18:03;6.70;99.90
76172;DHT22;64929;51.178;4.138;2024-03-02T06:20:28;6.60;99.90
76172;DHT22;64929;51.178;4.138;2024-03-02T06:22:56;6.70;99.90
76172;DHT22;64929;51.178;4.138;2024-03-02T06:25:22;6.60;99.90
76172;DHT22;64929;51.178;4.138;2024-03-02T06:27:47;6.60;99.90
76172;DHT22;64929;51.178;4.138;2024-03-02T06:30:13;6.60;99.90
76172;DHT22;64929;51.178;4.138;2024-03-02T06:32:39;6.70;99.90
76172;DHT22;64929;51.178;4.138;2024-03-02T06:35:05;6.70;99.90
76172;DHT22;64929;51.178;4.138;2024-03-02T06:37:32;6.70;99.90
76172;DHT22;64929;51.178;4.138;2024-03-02T06:39:58;6.60;99.90
76172;DHT22;64929;51.178;4.138;2024-03-02T06:42:24;6.60;99.90
76172;DHT22;64929;51.178;4.138;2024-03-02T06:44:49;6.60;99.90
76172;DHT22;64929;51.178;4.138;2024-03-02T06:47:16;6.60;99.90
76172;DHT22;64929;51.178;4.138;2024-03-02T06:49:42;6.60;99.90
76172;DHT22;64929;51.178;4.138;2024-03-02T06:52:08;6.60;99.90
76172;DHT22;64929;51.178;4.138;2024-03-02T06:54:33;6.60;99.90
76172;DHT22;64929;51.178;4.138;2024-03-02T06:57:00;6.50;99.90
76172;DHT22;64929;51.178;4.138;2024-03-02T06:59:26;6.60;99.90
76172;DHT22;64929;51.178;4.138;2024-03-02T07:01:51;6.70;99.90
76172;DHT22;64929;51.178;4.138;2024-03-02T07:04:17;6.70;99.90
76172;DHT22;64929;51.178;4.138;2024-03-02T07:06:43;6.70;99.90
76172;DHT22;64929;51.178;4.138;2024-03-02T07:09:08;6.60;99.90
76172;DHT22;64929;51.178;4.138;2024-03-02T07:11:36;6.60;99.90
76172;DHT22;64929;51.178;4.138;2024-03-02T07:14:02;6.50;99.90
76172;DHT22;64929;51.178;4.138;2024-03-02T07:16:28;6.60;99.90
76172;DHT22;64929;51.178;4.138;2024-03-02T07:18:56;6.60;99.90
76172;DHT22;64929;51.178;4.138;2024-03-02T07:21:22;6.70;99.90
76172;DHT22;64929;51.178;4.138;2024-03-02T07:23:48;6.70;99.90
76172;DHT22;64929;51.178;4.138;2024-03-02T07:26:14;6.70;99.90
76172;DHT22;64929;51.178;4.138;2024-03-02T07:28:41;6.70;99.90
76172;DHT22;64929;51.178;4.138;2024-03-02T07:31:07;6.70;99.90
76172;DHT22;64929;51.178;4.138;2024-03-02T07:33:33;6.80;99.90
76172;DHT22;64929;51.178;4.138;2024-03-02T07:35:59;6.80;99.90
76172;DHT22;64929;51.178;4.138;2024-03-02T07:38:26;6.90;99.90
76172;DHT22;64929;51.178;4.138;2024-03-02T07:40:52;6.90;99.90
76172;DHT22;64929;51.178;4.138;2024-03-02T07:43:19;7.00;99.90
76172;DHT22;64929;51.178;4.138;2024-03-02T07:45:45;7.00;99.90
76172;DHT22;64929;51.178;4.138;2024-03-02T07:48:11;7.00;99.90
76172;DHT22;64929;51.178;4.138;2024-03-02T07:50:37;7.00;99.90
76172;DHT22;64929;51.178;4.138;2024-03-02T07:53:04;7.10;99.90
76172;DHT22;64929;51.178;4.138;2024-03-02T07:55:30;7.10;99.90
76172;DHT22;64929;51.178;4.138;2024-03-02T07:58:00;7.10;99.90
76172;DHT22;64929;51.178;4.138;2024-03-02T08:00:26;7.20;99.90
76172;DHT22;64929;51.178;4.138;2024-03-02T08:02:53;7.20;99.90
76172;DHT22;64929;51.178;4.138;2024-03-02T08:05:19;7.20;99.90
76172;DHT22;64929;51.178;4.138;2024-03-02T08:07:45;7.30;99.90
76172;DHT22;64929;51.178;4.138;2024-03-02T08:10:11;7.20;99.90
76172;DHT22;64929;51.178;4.138;2024-03-02T08:12:37;7.30;99.90
76172;DHT22;64929;51.178;4.138;2024-03-02T08:15:04;7.20;99.90
76172;DHT22;64929;51.178;4.138;2024-03-02T08:17:30;7.30;99.90
76172;DHT22;64929;51.178;4.138;2024-03-02T08:19:56;7.40;99.90
76172;DHT22;64929;51.178;4.138;2024-03-02T08:22:22;7.50;99.90
76172;DHT22;64929;51.178;4.138;2024-03-02T08:24:48;7.60;99.90
76172;DHT22;64929;51.178;4.138;2024-03-02T08:27:14;7.60;99.90
76172;DHT22;64929;51.178;4.138;2024-03-02T08:29:40;7.80;99.90
76172;DHT22;64929;51.178;4.138;2024-03-02T08:32:06;7.90;99.90
76172;DHT22;64929;51.178;4.138;2024-03-02T08:34:32;7.90;99.90
76172;DHT22;64929;51.178;4.138;2024-03-02T08:37:01;7.80;99.90
76172;DHT22;64929;51.178;4.138;2024-03-02T08:39:27;7.80;99.90
76172;DHT22;64929;51.178;4.138;2024-03-02T08:41:53;7.90;99.90
76172;DHT22;64929;51.178;4.138;2024-03-02T08:44:19;8.10;99.90
76172;DHT22;64929;51.178;4.138;2024-03-02T08:46:45;8.10;99.90
76172;DHT22;64929;51.178;4.138;2024-03-02T08:49:12;8.10;99.90
76172;DHT22;64929;51.178;4.138;2024-03-02T08:51:38;8.20;99.90
76172;DHT22;64929;51.178;4.138;2024-03-02T08:54:04;8.20;99.90
76172;DHT22;64929;51.178;4.138;2024-03-02T08:56:30;8.30;99.90
76172;DHT22;64929;51.178;4.138;2024-03-02T08:58:56;8.30;99.90
76172;DHT22;64929;51.178;4.138;2024-03-02T09:01:22;8.20;99.90
76172;DHT22;64929;51.178;4.138;2024-03-02T09:03:48;8.20;99.90
76172;DHT22;64929;51.178;4.138;2024-03-02T09:06:17;8.10;99.90
76172;DHT22;64929;51.178;4.138;2024-03-02T09:08:43;8.20;99.90
76172;DHT22;64929;51.178;4.138;2024-03-02T09:11:10;8.30;99.90
76172;DHT22;64929;51.178;4.138;2024-03-02T09:13:36;8.40;99.90
76172;DHT22;64929;51.178;4.138;2024-03-02T09:16:03;8.50;99.90
76172;DHT22;64929;51.178;4.138;2024-03-02T09:18:29;8.70;99.90
76172;DHT22;64929;51.178;4.138;2024-03-02T09:20:55;8.60;99.90
76172;DHT22;64929;51.178;4.138;2024-03-02T09:23:21;8.60;99.90
76172;DHT22;64929;51.178;4.138;2024-03-02T09:25:47;8.70;99.90
76172;DHT22;64929;51.178;4.138;2024-03-02T09:28:12;8.80;99.90
76172;DHT22;64929;51.178;4.138;2024-03-02T09:30:38;8.90;99.90
76172;DHT22;64929;51.178;4.138;2024-03-02T09:33:04;8.90;99.90
76172;DHT22;64929;51.178;4.138;2024-03-02T09:35:30;9.00;99.90
76172;DHT22;64929;51.178;4.138;2024-03-02T09:37:56;9.10;99.90
76172;DHT22;64929;51.178;4.138;2024-03-02T09:40:24;9.20;99.90
76172;DHT22;64929;51.178;4.138;2024-03-02T09:42:51;9.30;99.90
76172;DHT22;64929;51.178;4.138;2024-03-02T09:45:25;9.30;99.90
76172;DHT22;64929;51.178;4.138;2024-03-02T09:47:52;9.20;99.90
76172;DHT22;64929;51.178;4.138;2024-03-02T09:50:17;9.30;99.90
76172;DHT22;64929;51.178;4.138;2024-03-02T09:52:43;9.30;99.90
76172;DHT22;64929;51.178;4.138;2024-03-02T09:55:09;9.30;99.90
76172;DHT22;64929;51.178;4.138;2024-03-02T09:57:37;9.40;99.90
76172;DHT22;64929;51.178;4.138;2024-03-02T10:00:03;9.40;99.90
76172;DHT22;64929;51.178;4.138;2024-03-02T10:02:29;9.70;99.90
76172;DHT22;64929;51.178;4.138;2024-03-02T10:04:54;9.70;99.90
76172;DHT22;64929;51.178;4.138;2024-03-02T10:07:20;9.80;99.90
76172;DHT22;64929;51.178;4.138;2024-03-02T10:09:48;9.70;99.90
76172;DHT22;64929;51.178;4.138;2024-03-02T10:12:16;9.80;99.90
76172;DHT22;64929;51.178;4.138;2024-03-02T10:14:43;10.00;99.90
76172;DHT22;64929;51.178;4.138;2024-03-02T10:17:11;10.00;99.90
76172;DHT22;64929;51.178;4.138;2024-03-02T10:19:38;9.90;99.90
76172;DHT22;64929;51.178;4.138;2024-03-02T10:22:06;9.90;99.90
76172;DHT22;64929;51.178;4.138;2024-03-02T10:24:37;9.90;99.90
76172;DHT22;64929;51.178;4.138;2024-03-02T10:27:25;10.00;99.90
76172;DHT22;64929;51.178;4.138;2024-03-02T10:29:51;9.80;99.90
76172;DHT22;64929;51.178;4.138;2024-03-02T10:32:17;9.80;99.90
76172;DHT22;64929;51.178;4.138;2024-03-02T10:34:45;9.80;99.90
76172;DHT22;64929;51.178;4.138;2024-03-02T10:37:12;9.90;99.90
76172;DHT22;64929;51.178;4.138;2024-03-02T10:39:39;10.00;99.90
76172;DHT22;64929;51.178;4.138;2024-03-02T10:42:08;10.10;99.90
76172;DHT22;64929;51.178;4.138;2024-03-02T10:44:34;10.00;99.90
76172;DHT22;64929;51.178;4.138;2024-03-02T10:47:04;10.10;99.90
76172;DHT22;64929;51.178;4.138;2024-03-02T10:49:31;10.10;99.90
76172;DHT22;64929;51.178;4.138;2024-03-02T10:52:00;10.20;99.90
76172;DHT22;64929;51.178;4.138;2024-03-02T10:54:26;10.30;99.90
76172;DHT22;64929;51.178;4.138;2024-03-02T10:56:53;10.10;99.90
76172;DHT22;64929;51.178;4.138;2024-03-02T10:59:27;10.30;99.90
76172;DHT22;64929;51.178;4.138;2024-03-02T11:02:00;10.40;99.90
76172;DHT22;64929;51.178;4.138;2024-03-02T11:04:28;10.60;99.90
76172;DHT22;64929;51.178;4.138;2024-03-02T11:07:10;10.70;99.90
76172;DHT22;64929;51.178;4.138;2024-03-02T11:09:40;10.60;99.90
76172;DHT22;64929;51.178;4.138;2024-03-02T11:12:13;10.60;99.90
76172;DHT22;64929;51.178;4.138;2024-03-02T11:14:41;10.60;99.90
76172;DHT22;64929;51.178;4.138;2024-03-02T11:17:11;10.80;99.90
76172;DHT22;64929;51.178;4.138;2024-03-02T11:19:39;11.00;99.90
76172;DHT22;64929;51.178;4.138;2024-03-02T11:22:06;11.10;99.90
76172;DHT22;64929;51.178;4.138;2024-03-02T11:24:33;11.10;99.90
76172;DHT22;64929;51.178;4.138;2024-03-02T11:27:03;11.00;99.90
76172;DHT22;64929;51.178;4.138;2024-03-02T11:32:21;11.20;99.90
76172;DHT22;64929;51.178;4.138;2024-03-02T11:34:49;11.40;99.90
76172;DHT22;64929;51.178;4.138;2024-03-02T11:37:19;11.40;99.80
76172;DHT22;64929;51.178;4.138;2024-03-02T11:39:50;11.70;99.80
76172;DHT22;64929;51.178;4.138;2024-03-02T11:42:17;11.80;99.10
76172;DHT22;64929;51.178;4.138;2024-03-02T11:44:45;11.90;99.30
76172;DHT22;64929;51.178;4.138;2024-03-02T11:47:12;11.80;99.10
76172;DHT22;64929;51.178;4.138;2024-03-02T11:49:48;11.70;99.10
76172;DHT22;64929;51.178;4.138;2024-03-02T11:52:15;11.50;98.90
76172;DHT22;64929;51.178;4.138;2024-03-02T11:54:45;11.30;98.90
76172;DHT22;64929;51.178;4.138;2024-03-02T11:57:21;11.30;99.40
76172;DHT22;64929;51.178;4.138;2024-03-02T11:59:50;11.30;99.70
76172;DHT22;64929;51.178;4.138;2024-03-02T12:02:20;11.30;99.60
76172;DHT22;64929;51.178;4.138;2024-03-02T12:04:47;11.30;99.70
76172;DHT22;64929;51.178;4.138;2024-03-02T12:07:20;11.30;99.80
76172;DHT22;64929;51.178;4.138;2024-03-02T12:09:47;11.40;99.60
76172;DHT22;64929;51.178;4.138;2024-03-02T12:12:13;11.30;99.40
76172;DHT22;64929;51.178;4.138;2024-03-02T12:14:50;11.20;99.70
76172;DHT22;64929;51.178;4.138;2024-03-02T12:17:17;11.20;99.80
76172;DHT22;64929;51.178;4.138;2024-03-02T12:19:42;11.20;99.90
76172;DHT22;64929;51.178;4.138;2024-03-02T12:22:08;11.10;99.90
76172;DHT22;64929;51.178;4.138;2024-03-02T12:24:34;11.20;99.90
76172;DHT22;64929;51.178;4.138;2024-03-02T12:27:00;11.20;99.90
76172;DHT22;64929;51.178;4.138;2024-03-02T12:29:26;11.40;99.90
76172;DHT22;64929;51.178;4.138;2024-03-02T12:31:52;11.30;99.90
76172;DHT22;64929;51.178;4.138;2024-03-02T12:34:18;11.20;99.90
76172;DHT22;64929;51.178;4.138;2024-03-02T12:36:47;11.30;99.90
76172;DHT22;64929;51.178;4.138;2024-03-02T12:39:19;11.30;99.90
76172;DHT22;64929;51.178;4.138;2024-03-02T12:41:46;11.40;99.90
76172;DHT22;64929;51.178;4.138;2024-03-02T12:44:11;11.40;99.90
76172;DHT22;64929;51.178;4.138;2024-03-02T12:46:37;11.40;99.90
76172;DHT22;64929;51.178;4.138;2024-03-02T12:49:11;11.50;99.90
76172;DHT22;64929;51.178;4.138;2024-03-02T12:51:38;11.50;99.90
76172;DHT22;64929;51.178;4.138;2024-03-02T12:54:06;11.50;99.90
76172;DHT22;64929;51.178;4.138;2024-03-02T12:56:32;11.60;99.90
76172;DHT22;64929;51.178;4.138;2024-03-02T12:58:59;11.80;99.90
76172;DHT22;64929;51.178;4.138;2024-03-02T13:01:25;11.90;99.90
76172;DHT22;64929;51.178;4.138;2024-03-02T13:03:52;12.00;99.90
76172;DHT22;64929;51.178;4.138;2024-03-02T13:06:18;12.00;99.90
76172;DHT22;64929;51.178;4.138;2024-03-02T13:08:45;12.00;99.80
76172;DHT22;64929;51.178;4.138;2024-03-02T13:11:12;12.00;99.90
76172;DHT22;64929;51.178;4.138;2024-03-02T13:13:39;11.90;99.80
76172;DHT22;64929;51.178;4.138;2024-03-02T13:16:11;11.90;99.90
76172;DHT22;64929;51.178;4.138;2024-03-02T13:18:40;11.90;99.90
76172;DHT22;64929;51.178;4.138;2024-03-02T13:21:07;11.90;99.60
76172;DHT22;64929;51.178;4.138;2024-03-02T13:23:33;11.80;99.80
76172;DHT22;64929;51.178;4.138;2024-03-02T13:25:58;11.90;99.70
76172;DHT22;64929;51.178;4.138;2024-03-02T13:28:27;12.00;99.90
76172;DHT22;64929;51.178;4.138;2024-03-02T13:30:53;11.90;99.90
76172;DHT22;64929;51.178;4.138;2024-03-02T13:33:19;12.00;99.90
76172;DHT22;64929;51.178;4.138;2024-03-02T13:35:49;12.00;99.80
76172;DHT22;64929;51.178;4.138;2024-03-02T13:38:16;12.00;99.80
76172;DHT22;64929;51.178;4.138;2024-03-02T13:40:42;11.80;99.80
76172;DHT22;64929;51.178;4.138;2024-03-02T13:43:08;11.80;99.70
76172;DHT22;64929;51.178;4.138;2024-03-02T13:45:34;11.90;99.90
76172;DHT22;64929;51.178;4.138;2024-03-02T13:48:00;11.80;99.90
76172;DHT22;64929;51.178;4.138;2024-03-02T13:50:27;11.80;99.90
76172;DHT22;64929;51.178;4.138;2024-03-02T13:52:55;11.90;99.80
76172;DHT22;64929;51.178;4.138;2024-03-02T13:55:20;11.90;99.80
76172;DHT22;64929;51.178;4.138;2024-03-02T13:57:46;11.90;99.90
76172;DHT22;64929;51.178;4.138;2024-03-02T14:00:13;11.90;99.90
76172;DHT22;64929;51.178;4.138;2024-03-02T14:02:39;12.00;99.50
76172;DHT22;64929;51.178;4.138;2024-03-02T14:05:05;12.00;99.90
76172;DHT22;64929;51.178;4.138;2024-03-02T14:07:31;11.90;99.90
76172;DHT22;64929;51.178;4.138;2024-03-02T14:09:57;12.00;99.90
76172;DHT22;64929;51.178;4.138;2024-03-02T14:12:23;12.00;99.90
76172;DHT22;64929;51.178;4.138;2024-03-02T14:14:49;12.00;99.90
76172;DHT22;64929;51.178;4.138;2024-03-02T14:17:16;12.00;99.90
76172;DHT22;64929;51.178;4.138;2024-03-02T14:19:42;11.90;99.90
76172;DHT22;64929;51.178;4.138;2024-03-02T14:22:08;11.90;99.90
76172;DHT22;64929;51.178;4.138;2024-03-02T14:24:33;11.90;99.90
76172;DHT22;64929;51.178;4.138;2024-03-02T14:26:59;12.00;99.90
76172;DHT22;64929;51.178;4.138;2024-03-02T14:29:27;12.20;99.90
76172;DHT22;64929;51.178;4.138;2024-03-02T14:31:53;12.20;99.90
76172;DHT22;64929;51.178;4.138;2024-03-02T14:34:18;12.20;99.90
76172;DHT22;64929;51.178;4.138;2024-03-02T14:36:44;12.20;99.90
76172;DHT22;64929;51.178;4.138;2024-03-02T14:39:10;12.30;99.90
76172;DHT22;64929;51.178;4.138;2024-03-02T14:41:37;12.20;99.90
76172;DHT22;64929;51.178;4.138;2024-03-02T14:44:02;12.30;99.90
76172;DHT22;64929;51.178;4.138;2024-03-02T14:46:29;12.30;99.90
76172;DHT22;64929;51.178;4.138;2024-03-02T14:48:55;12.30;99.90
76172;DHT22;64929;51.178;4.138;2024-03-02T14:51:21;12.10;99.90
76172;DHT22;64929;51.178;4.138;2024-03-02T14:53:46;11.90;99.90
76172;DHT22;64929;51.178;4.138;2024-03-02T14:56:12;11.80;99.90
76172;DHT22;64929;51.178;4.138;2024-03-02T14:58:41;11.70;99.90
76172;DHT22;64929;51.178;4.138;2024-03-02T15:01:07;11.70;99.90
76172;DHT22;64929;51.178;4.138;2024-03-02T15:03:34;11.90;99.90
76172;DHT22;64929;51.178;4.138;2024-03-02T15:06:01;12.00;99.90
76172;DHT22;64929;51.178;4.138;2024-03-02T15:08:27;11.90;99.90
76172;DHT22;64929;51.178;4.138;2024-03-02T15:10:53;11.90;99.90
76172;DHT22;64929;51.178;4.138;2024-03-02T15:13:21;11.90;99.90
76172;DHT22;64929;51.178;4.138;2024-03-02T15:15:47;11.90;99.90
76172;DHT22;64929;51.178;4.138;2024-03-02T15:18:13;11.60;99.90
76172;DHT22;64929;51.178;4.138;2024-03-02T15:20:39;11.50;99.90
76172;DHT22;64929;51.178;4.138;2024-03-02T15:23:05;11.50;99.90
76172;DHT22;64929;51.178;4.138;2024-03-02T15:25:31;11.50;99.90
76172;DHT22;64929;51.178;4.138;2024-03-02T15:27:57;11.40;99.90
76172;DHT22;64929;51.178;4.138;2024-03-02T15:30:22;11.40;99.90
76172;DHT22;64929;51.178;4.138;2024-03-02T15:32:48;11.60;99.90
76172;DHT22;64929;51.178;4.138;2024-03-02T15:35:14;11.50;99.90
76172;DHT22;64929;51.178;4.138;2024-03-02T15:37:40;11.40;99.90
76172;DHT22;64929;51.178;4.138;2024-03-02T15:40:06;11.40;99.90
76172;DHT22;64929;51.178;4.138;2024-03-02T15:42:34;11.30;99.90
76172;DHT22;64929;51.178;4.138;2024-03-02T15:45:00;11.30;99.90
76172;DHT22;64929;51.178;4.138;2024-03-02T15:47:26;11.40;99.90